Nearby METAR Reports

KLNK - Lincoln, Nebraska, USA
Distance from station: WNW 8mi, 13km
Updated: Tue, 19-Feb-2019 3:54am CST
Mostly Cloudy
Mostly Cloudy
 Wind from N
Wind: N 6 mph , 9 km/h
Temperature: 5°F , -15°C
Wind Chill: -6°F , -21°C
Dew Point: 1°F , -17°C
Humidity: 85%
Barometer: 30.52 inHg , 1033.5 hPa
Clouds: Mostly Cloudy
Visibility: 10 miles , 16 km
Cloud details: Mostly Cloudy 4500 ft
Mostly Cloudy 11000 ft
2019/02/19 09:54 KLNK 190954Z AUTO 35005KT 10SM BKN045 BKN110 M15/M17 A3052 RMK AO2 SLP360 T11501172
KAHQ - Wahoo, Nebraska, USA
Distance from station: N 31mi, 49km
Updated: Tue, 19-Feb-2019 4:35am CST
Clear
Clear
 Wind from N
Wind: N 7 mph , 11 km/h
Temperature: -6°F , -21°C
Wind Chill: -20°F , -29°C
Dew Point: -9°F , -23°C
Humidity: 84%
Barometer: 30.51 inHg , 1033.2 hPa
Clouds: Clear
Visibility: 10 miles , 16 km
2019/02/19 10:35 KAHQ 191035Z AUTO 35006KT 10SM CLR M21/M23 A3051 RMK AO2 T12061226
 
KBIE - Beatrice Municip, Nebraska, USA
Distance from station: S 36mi, 57km
Updated: Tue, 19-Feb-2019 4:35am CST
Clear
Clear
 Wind from ENE
Wind: ENE 7 mph , 11 km/h
Temperature: 10°F , -12°C
Wind Chill: -1°F , -18°C
Dew Point: 7°F , -14°C
Humidity: 85%
Barometer: 30.48 inHg , 1032.2 hPa
Clouds: Clear
Visibility: 10 miles , 16 km
2019/02/19 10:35 KBIE 191035Z AUTO 07006KT 10SM CLR M12/M14 A3048 RMK AO2 T11201136
KMLE - Omaha/Millard, Nebraska, USA
Distance from station: NE 39mi, 63km
Updated: Tue, 19-Feb-2019 4:35am CST
Clear
Clear
 Wind from calm
Wind: Calm
Temperature: 7°F , -14°C
Dew Point: 3°F , -16°C
Humidity: 85%
Barometer: 30.53 inHg , 1033.9 hPa
Clouds: Clear
Visibility: 7 miles , 11 km
2019/02/19 10:35 KMLE 191035Z AUTO 00000KT 7SM CLR M14/M16 A3053 RMK AO2 T11401157
 
KPMV - Plattsmouth Muni, Nebraska, USA
Distance from station: ENE 39mi, 63km
Updated: Tue, 19-Feb-2019 4:35am CST
Clear
Clear
 Wind from E
Wind: E 3 mph , 6 km/h
Temperature: 7°F , -14°C
Dew Point: 3°F , -16°C
Humidity: 85%
Barometer: 30.52 inHg , 1033.5 hPa
Clouds: Clear
Visibility: 7 miles , 11 km
2019/02/19 10:35 KPMV 191035Z AUTO 08003KT 7SM CLR M14/M16 A3052 RMK AO2 T11451160
KAFK - Nebraska City, Nebraska, USA
Distance from station: ESE 43mi, 69km
Updated: Tue, 19-Feb-2019 4:35am CST
Clear
Clear
 Wind from calm
Wind: Calm
Temperature: 7°F , -14°C
Dew Point: 3°F , -16°C
Humidity: 85%
Barometer: 30.51 inHg , 1033.2 hPa
Clouds: Clear
Visibility: 7 miles , 11 km
2019/02/19 10:35 KAFK 191035Z AUTO 00000KT 7SM CLR M14/M16 A3051 RMK AO2 T11391162
 
KOFF - Offutt Afb/Belle, Nebraska, USA
Distance from station: ENE 44mi, 70km
Updated: Tue, 19-Feb-2019 3:56am CST
Mist, Partly cloudy
Mist, Partly cloudy
 Wind from calm
Wind: Calm
Temperature: -0°F , -18°C
Dew Point: -2°F , -19°C
Humidity: 92%
Barometer: 30.53 inHg , 1033.9 hPa
Summary: Mist
Clouds: Partly Cloudy
Visibility: 4 miles , 6 km
Cloud details: Partly Cloudy 9500 ft
2019/02/19 09:56 KOFF 190956Z AUTO 00000KT 4SM BR SCT095 M18/M19 A3053 RMK AO2 SLP366 T11851187 TSNO $
KFET - Fremont Muni Arp, Nebraska, USA
Distance from station: N 46mi, 74km
Updated: Tue, 19-Feb-2019 4:35am CST
Partly Cloudy
Partly Cloudy
 Wind from calm
Wind: Calm
Temperature: -2°F , -19°C
Dew Point: -6°F , -21°C
Humidity: 84%
Barometer: 30.51 inHg , 1033.2 hPa
Clouds: Partly Cloudy
Visibility: 10 miles , 16 km
Cloud details: Partly Cloudy 6000 ft
Partly Cloudy 10000 ft
2019/02/19 10:35 KFET 191035Z AUTO 00000KT 10SM SCT060 SCT100 M19/M21 A3051 RMK AO2 T11891213
 
KBTA - Blair Muni, Nebraska, USA
Distance from station: NNE 51mi, 82km
Updated: Tue, 19-Feb-2019 4:35am CST
Partly Cloudy
Partly Cloudy
 Wind from NE
Wind: NE 6 mph , 9 km/h
Temperature: 5°F , -15°C
Wind Chill: -6°F , -21°C
Dew Point: 1°F , -17°C
Humidity: 85%
Barometer: 30.50 inHg , 1032.8 hPa
Clouds: Partly Cloudy
Visibility: 10 miles , 16 km
Cloud details: Partly Cloudy 10000 ft
2019/02/19 10:35 KBTA 191035Z AUTO 05005KT 10SM SCT100 M15/M17 A3050 RMK AO2 T11531172
KJYR - York, Nebraska, USA
Distance from station: W 52mi, 84km
Updated: Tue, 19-Feb-2019 4:35am CST
Overcast
Overcast
 Wind from calm
Wind: Calm
Temperature: 10°F , -12°C
Dew Point: 9°F , -13°C
Humidity: 92%
Barometer: 30.46 inHg , 1031.5 hPa
Clouds: Overcast
Visibility: 10 miles , 16 km
Cloud details: Overcast 3500 ft
2019/02/19 10:35 KJYR 191035Z AUTO 00000KT 10SM OVC035 M12/M13 A3046 RMK AO2
 
KOMA - Omaha/Eppley, Nebraska, USA
Distance from station: NE 53mi, 85km
Updated: Tue, 19-Feb-2019 4:52am CST
Haze, Few clouds
Haze, Few clouds
 Wind from NNW
Wind: NNW 6 mph , 9 km/h
Temperature: -2°F , -19°C
Wind Chill: -14°F , -26°C
Dew Point: -8°F , -22°C
Humidity: 77%
Barometer: 30.55 inHg , 1034.5 hPa
Summary: Haze
Clouds: Few Clouds
Visibility: 4 miles , 6 km
Cloud details: Few Clouds 200 ft
2019/02/19 10:52 KOMA 191052Z 34005KT 4SM HZ FEW002 M19/M22 A3055 RMK AO2 SLP369 T11941222 $
KOLU - Columbus Muni, Nebraska, USA
Distance from station: NW 58mi, 93km
Updated: Tue, 19-Feb-2019 3:56am CST
Overcast
Overcast
 
Temperature: -2°F , -19°C
Dew Point: -8°F , -22°C
Humidity: 77%
Barometer: 30.50 inHg , 1032.8 hPa
Clouds: Overcast
Visibility: 10 miles , 16 km
Cloud details: Overcast 3600 ft
2019/02/19 09:56 KOLU 190956Z AUTO 10SM OVC036 M19/M22 A3050 RMK AO2 SLP365 T11941217 FZRANO $